Time;durP1;ratioP1;P1;durP2;ratioP2;P2;SDS_P1;SDS_P2;PMS_P1;PMS_P2;Temp;Humidity;BMP_temperature;BMP_pressure;BME280_temperature;BME280_humidity;BME280_pressure;Samples;Min_cycle;Max_cycle;Signal;HPM_P1;HPM_P2
2023/01/19 00:01:14;;;;;;;6.93;1.10;;;;;;;7.32;69.07;100071.19;5091617;28;20528;-43
2023/01/19 00:03:41;;;;;;;4.45;1.00;;;;;;;6.95;71.11;100074.13;5086060;28;20028;-45
2023/01/19 00:06:06;;;;;;;5.00;0.90;;;;;;;7.16;70.35;100096.03;5085020;28;20056;-45
2023/01/19 00:08:33;;;;;;;4.50;1.00;;;;;;;6.95;71.86;100090.53;5080593;28;20508;-43
2023/01/19 00:10:58;;;;;;;4.78;0.60;;;;;;;7.21;70.21;100090.91;5084498;28;20104;-47
2023/01/19 00:13:24;;;;;;;4.35;0.80;;;;;;;6.98;71.43;100093.16;5081559;28;20032;-43
2023/01/19 00:15:49;;;;;;;6.28;0.90;;;;;;;7.11;71.49;100091.63;5084728;28;20056;-44
2023/01/19 00:18:14;;;;;;;4.05;0.68;;;;;;;7.18;71.67;100093.47;5084987;28;20141;-43
2023/01/19 00:20:40;;;;;;;6.50;0.50;;;;;;;7.18;71.57;100104.72;5080256;28;20036;-43
2023/01/19 00:23:06;;;;;;;7.25;0.90;;;;;;;7.36;71.37;100098.03;5084251;28;20049;-47
2023/01/19 00:25:32;;;;;;;8.00;0.80;;;;;;;6.92;72.98;100101.72;5080455;28;20040;-43
2023/01/19 00:27:58;;;;;;;5.70;0.85;;;;;;;6.97;73.08;100108.69;5084052;28;20406;-45
2023/01/19 00:30:23;;;;;;;7.53;0.70;;;;;;;6.95;72.98;100103.50;5079253;28;20044;-42
2023/01/19 00:32:48;;;;;;;3.85;0.60;;;;;;;6.77;73.01;100106.63;5083839;28;20036;-46
2023/01/19 00:35:14;;;;;;;3.53;0.50;;;;;;;6.98;72.49;100100.94;5083771;28;20028;-49
2023/01/19 00:37:39;;;;;;;5.50;0.80;;;;;;;6.76;73.22;100110.09;5079786;28;20150;-42
2023/01/19 00:40:05;;;;;;;6.40;0.65;;;;;;;6.50;73.73;100121.72;5083487;28;20028;-44
2023/01/19 00:42:40;;;;;;;2.88;0.55;;;;;;;6.67;73.11;100124.59;5060989;28;20032;-44
2023/01/19 00:45:23;;;;;;;6.07;0.75;;;;;;;6.85;72.72;100117.13;5083277;28;20030;-44
2023/01/19 00:47:56;;;;;;;3.22;0.52;;;;;;;6.90;73.07;100118.94;5079998;28;20036;-46
2023/01/19 00:50:23;;;;;;;6.65;0.70;;;;;;;6.84;72.99;100129.22;5079056;28;20394;-41
2023/01/19 00:52:48;;;;;;;7.13;0.77;;;;;;;6.38;74.06;100130.16;5084418;28;20071;-43
2023/01/19 00:55:14;;;;;;;5.47;1.00;;;;;;;6.76;73.64;100125.66;5086810;28;20060;-44
2023/01/19 00:57:40;;;;;;;5.55;0.68;;;;;;;6.92;73.23;100127.63;5082211;28;20024;-44
2023/01/19 01:00:10;;;;;;;9.13;1.10;;;;;;;6.83;73.10;100127.47;5083637;28;20378;-47
2023/01/19 01:02:36;;;;;;;8.77;1.05;;;;;;;6.71;72.99;100129.84;5078795;28;20036;-45
2023/01/19 01:05:02;;;;;;;3.35;0.80;;;;;;;6.80;73.04;100131.75;5083315;28;20024;-44
2023/01/19 01:07:29;;;;;;;6.07;0.73;;;;;;;7.05;72.66;100135.59;5081061;28;20036;-44
2023/01/19 01:09:58;;;;;;;8.80;0.80;;;;;;;6.95;72.67;100144.97;5084203;28;20025;-46
2023/01/19 01:12:23;;;;;;;7.75;1.10;;;;;;;6.81;72.66;100161.97;5078283;28;20028;-44
2023/01/19 01:14:49;;;;;;;4.25;0.70;;;;;;;6.61;72.95;100179.75;5083299;28;20032;-44
2023/01/19 01:17:14;;;;;;;11.88;1.13;;;;;;;6.53;72.87;100176.16;5083087;28;20101;-47
2023/01/19 01:19:40;;;;;;;4.22;0.80;;;;;;;5.95;73.52;100185.38;5079551;28;20184;-45
2023/01/19 01:22:06;;;;;;;1.85;0.60;;;;;;;5.86;73.47;100187.72;5082774;28;20025;-44
2023/01/19 01:24:32;;;;;;;2.90;0.50;;;;;;;5.60;74.13;100194.94;5080007;28;20062;-43
2023/01/19 01:26:57;;;;;;;5.45;1.02;;;;;;;5.63;74.50;100199.28;5083083;28;20515;-44
2023/01/19 01:29:22;;;;;;;2.88;0.68;;;;;;;5.81;73.67;100197.09;5079064;28;20497;-44
2023/01/19 01:31:48;;;;;;;1.55;0.32;;;;;;;5.53;74.38;100192.19;5064520;28;20509;-44
2023/01/19 01:34:13;;;;;;;4.80;0.50;;;;;;;5.82;73.96;100187.63;5082757;28;20039;-48
2023/01/19 01:36:38;;;;;;;1.35;0.30;;;;;;;6.02;73.22;100188.97;5082073;28;20028;-43
2023/01/19 01:39:04;;;;;;;2.53;0.60;;;;;;;6.24;73.02;100191.13;5086964;28;20032;-40
2023/01/19 01:41:29;;;;;;;6.05;0.60;;;;;;;6.15;73.57;100198.72;5077962;28;20036;-44
2023/01/19 01:44:00;;;;;;;2.95;0.40;;;;;;;6.40;72.54;100207.84;5082788;28;20031;-43
2023/01/19 01:46:28;;;;;;;5.18;0.77;;;;;;;6.35;72.61;100205.16;5078688;28;20039;-42
2023/01/19 01:49:06;;;;;;;6.07;0.52;;;;;;;6.32;72.87;100214.59;5082752;28;20032;-44
2023/01/19 01:51:42;;;;;;;6.32;0.80;;;;;;;6.50;72.48;100217.53;5078018;28;20039;-44
2023/01/19 01:54:19;;;;;;;3.83;0.60;;;;;;;6.86;71.46;100223.41;5083196;28;20149;-44
2023/01/19 01:56:51;;;;;;;5.70;0.68;;;;;;;6.80;71.94;100220.69;5079625;28;20446;-46
2023/01/19 01:59:24;;;;;;;4.55;0.70;;;;;;;6.56;72.81;100215.06;5080549;28;20038;-43
2023/01/19 02:04:55;;;;;;;5.10;0.60;;;;;;;6.43;73.60;100219.13;5085745;28;20035;-44
2023/01/19 02:13:21;;;;;;;2.83;0.52;;;;;;;5.45;75.29;100258.31;5085140;28;20040;-44
2023/01/19 02:15:58;;;;;;;3.15;0.60;;;;;;;5.41;74.94;100265.16;5088692;28;20077;-42
2023/01/19 02:18:27;;;;;;;3.47;0.40;;;;;;;5.72;73.26;100256.41;5080225;28;20453;-44
2023/01/19 02:20:59;;;;;;;2.75;0.40;;;;;;;5.53;73.43;100260.28;5082619;28;20028;-43
2023/01/19 02:23:51;;;;;;;2.03;0.47;;;;;;;5.74;72.79;100244.34;5079699;28;20044;-44
2023/01/19 02:26:25;;;;;;;4.50;0.50;;;;;;;5.95;71.92;100238.84;5074830;28;20162;-44
2023/01/19 02:28:58;;;;;;;2.80;0.43;;;;;;;6.27;70.96;100236.94;5084455;28;20032;-43
2023/01/19 02:31:24;;;;;;;4.15;0.43;;;;;;;6.47;70.49;100235.59;5078971;28;20096;-44
2023/01/19 02:33:50;;;;;;;3.25;0.60;;;;;;;6.28;71.52;100229.16;5085374;28;20502;-43
2023/01/19 02:36:21;;;;;;;1.05;0.20;;;;;;;6.61;70.59;100231.56;5082528;28;20020;-44
2023/01/19 02:38:49;;;;;;;3.60;0.40;;;;;;;6.46;70.75;100232.13;5083190;28;20032;-41
2023/01/19 02:41:19;;;;;;;4.47;0.40;;;;;;;6.38;71.41;100236.31;5082375;28;20090;-43
2023/01/19 02:43:47;;;;;;;4.38;0.50;;;;;;;6.55;71.06;100252.16;5084741;28;20549;-44
2023/01/19 02:46:14;;;;;;;5.32;0.70;;;;;;;6.25;72.43;100251.53;5085711;28;20036;-44
2023/01/19 02:48:40;;;;;;;3.47;0.60;;;;;;;6.42;71.33;100256.22;5081821;28;20119;-44
2023/01/19 02:51:23;;;;;;;4.57;0.50;;;;;;;6.44;71.62;100246.78;5085116;28;20136;-44
2023/01/19 02:54:07;;;;;;;4.25;0.70;;;;;;;6.29;72.01;100248.16;5081846;28;20038;-43
2023/01/19 02:56:35;;;;;;;1.77;0.40;;;;;;;6.32;72.21;100241.34;5081599;28;20036;-44
2023/01/19 02:59:22;;;;;;;4.05;0.70;;;;;;;6.48;71.68;100239.94;5085629;28;20051;-44
2023/01/19 03:02:10;;;;;;;4.45;0.57;;;;;;;6.49;71.31;100245.16;5081356;28;20036;-43
2023/01/19 03:04:53;;;;;;;3.22;0.60;;;;;;;6.55;71.06;100252.16;5081629;28;20074;-43
2023/01/19 03:07:56;;;;;;;3.72;0.65;;;;;;;6.31;71.52;100251.66;5081776;28;20028;-43
2023/01/19 03:10:32;;;;;;;3.53;0.73;;;;;;;6.00;71.42;100243.25;5080781;28;20032;-41
2023/01/19 03:13:12;;;;;;;4.30;0.80;;;;;;;6.07;71.05;100242.56;5084920;28;20054;-43
2023/01/19 03:15:49;;;;;;;4.35;0.70;;;;;;;6.39;69.82;100257.88;5081088;28;20043;-44
2023/01/19 03:18:19;;;;;;;4.95;0.63;;;;;;;6.36;69.45;100258.69;5084626;28;20036;-44
2023/01/19 03:20:47;;;;;;;6.40;0.70;;;;;;;6.43;69.08;100249.31;5082008;28;20036;-44
2023/01/19 03:23:14;;;;;;;2.70;1.02;;;;;;;6.48;68.97;100238.22;5085218;28;20123;-42
2023/01/19 03:25:42;;;;;;;3.63;0.82;;;;;;;6.50;68.96;100248.63;5081187;28;20416;-43
2023/01/19 03:28:08;;;;;;;4.93;0.90;;;;;;;6.52;68.78;100246.94;5085321;28;20615;-43
2023/01/19 03:30:39;;;;;;;4.18;0.80;;;;;;;6.30;69.09;100242.16;5080519;28;20090;-44
2023/01/19 03:33:15;;;;;;;3.47;0.70;;;;;;;6.41;69.28;100246.69;5085001;28;20032;-44
2023/01/19 03:35:45;;;;;;;4.57;0.80;;;;;;;6.38;69.33;100245.78;5081438;28;20043;-46
2023/01/19 03:38:15;;;;;;;6.85;0.98;;;;;;;6.01;70.78;100264.84;5084892;28;20024;-42
2023/01/19 03:40:41;;;;;;;5.97;0.88;;;;;;;6.23;70.36;100276.50;5080664;28;20408;-46
2023/01/19 03:43:07;;;;;;;6.63;1.00;;;;;;;6.21;71.49;100273.91;5085365;28;20144;-45
2023/01/19 03:45:37;;;;;;;10.50;1.17;;;;;;;6.38;71.86;100282.03;5080729;28;20035;-46
2023/01/19 03:48:04;;;;;;;11.07;1.10;;;;;;;5.85;73.12;100273.97;5084703;28;20024;-43
2023/01/19 03:50:30;;;;;;;8.45;1.25;;;;;;;6.30;72.56;100276.69;5079958;28;20950;-45
2023/01/19 03:53:06;;;;;;;10.40;1.15;;;;;;;6.12;71.71;100276.28;5084823;28;20035;-46
2023/01/19 03:55:33;;;;;;;8.63;1.30;;;;;;;6.44;70.46;100277.84;5080443;28;20039;-42
2023/01/19 03:57:58;;;;;;;6.47;1.05;;;;;;;6.43;69.98;100280.41;5084969;28;20024;-44
2023/01/19 04:00:23;;;;;;;12.98;1.30;;;;;;;6.64;69.42;100282.56;5080860;28;20043;-44
2023/01/19 04:02:48;;;;;;;12.05;1.10;;;;;;;6.96;68.53;100286.59;5086719;28;20398;-43
2023/01/19 04:05:14;;;;;;;11.32;1.70;;;;;;;7.00;68.43;100283.25;5083501;28;20499;-45
2023/01/19 04:07:39;;;;;;;8.57;1.42;;;;;;;7.03;68.22;100287.59;5082614;28;20040;-49
2023/01/19 04:10:05;;;;;;;10.05;1.30;;;;;;;7.23;67.57;100291.44;5092560;28;20032;-44
2023/01/19 04:12:30;;;;;;;10.63;1.55;;;;;;;7.04;67.76;100279.84;5087669;28;20032;-44
2023/01/19 04:14:55;;;;;;;12.95;1.50;;;;;;;6.98;67.58;100290.13;5091833;28;20040;-41
2023/01/19 04:17:21;;;;;;;7.00;1.42;;;;;;;6.91;67.52;100286.53;5088590;28;20359;-44
2023/01/19 04:19:46;;;;;;;9.30;1.40;;;;;;;7.12;66.29;100286.06;5041859;22;20046;-40
2023/01/19 04:22:11;;;;;;;11.20;1.35;;;;;;;7.30;65.77;100298.47;5004540;28;20469;-41
2023/01/19 04:24:37;;;;;;;9.15;1.55;;;;;;;7.05;66.41;100294.56;5001242;28;20321;-42
2023/01/19 04:27:02;;;;;;;12.27;1.88;;;;;;;7.08;66.44;100285.97;5005530;28;20026;-40
2023/01/19 04:29:27;;;;;;;10.40;1.60;;;;;;;7.28;66.21;100287.19;5002200;28;20488;-41
2023/01/19 04:31:52;;;;;;;13.18;1.30;;;;;;;7.26;65.78;100294.06;5005371;28;20038;-40
2023/01/19 04:34:18;;;;;;;14.15;1.63;;;;;;;7.37;65.40;100300.31;5003595;28;20073;-40
2023/01/19 04:36:44;;;;;;;12.35;1.58;;;;;;;7.21;64.93;100288.81;5006356;28;20032;-41
2023/01/19 04:39:10;;;;;;;10.52;1.30;;;;;;;7.40;63.57;100284.81;5006870;28;20030;-40
2023/01/19 04:41:36;;;;;;;10.35;1.30;;;;;;;7.41;63.63;100291.75;5001223;28;20045;-42
2023/01/19 04:44:01;;;;;;;13.18;1.70;;;;;;;7.31;63.36;100289.84;5007248;28;20044;-40
2023/01/19 04:46:26;;;;;;;12.27;1.50;;;;;;;7.30;63.23;100299.34;5003596;28;20036;-40
2023/01/19 04:48:52;;;;;;;9.07;1.23;;;;;;;7.49;63.48;100294.47;5008283;28;20034;-40
2023/01/19 04:51:17;;;;;;;15.73;1.60;;;;;;;7.50;63.29;100294.47;5002700;28;20068;-40
2023/01/19 04:53:42;;;;;;;10.93;1.40;;;;;;;7.13;64.30;100293.00;5007215;28;20033;-41
2023/01/19 04:56:07;;;;;;;13.27;1.83;;;;;;;7.74;62.92;100309.59;5005996;28;20484;-41
2023/01/19 04:58:33;;;;;;;11.90;1.67;;;;;;;7.52;64.13;100302.28;5002524;28;20496;-41
2023/01/19 05:00:59;;;;;;;13.18;1.67;;;;;;;7.67;63.55;100310.34;5004860;28;20088;-40
2023/01/19 05:03:24;;;;;;;11.88;1.60;;;;;;;7.46;63.44;100304.78;5002147;28;20436;-41
2023/01/19 05:05:49;;;;;;;13.27;1.80;;;;;;;7.55;63.63;100305.81;5004997;28;20037;-41
2023/01/19 05:08:15;;;;;;;9.90;1.50;;;;;;;7.74;62.90;100305.22;5004171;28;20384;-40
2023/01/19 05:10:40;;;;;;;15.30;2.10;;;;;;;7.38;63.35;100308.97;4999811;28;20492;-40
2023/01/19 05:13:05;;;;;;;16.80;1.90;;;;;;;7.54;62.74;100303.19;5005060;28;20046;-42
2023/01/19 05:15:31;;;;;;;14.63;1.60;;;;;;;7.68;62.01;100312.09;4984387;28;20038;-41
2023/01/19 05:17:56;;;;;;;11.68;1.30;;;;;;;7.70;61.59;100308.66;5005877;28;20033;-43
2023/01/19 05:20:23;;;;;;;8.65;1.55;;;;;;;7.84;61.10;100311.47;5002835;28;20041;-38
2023/01/19 05:22:50;;;;;;;11.32;1.48;;;;;;;7.74;61.22;100318.22;5009248;28;20037;-41
2023/01/19 05:25:15;;;;;;;10.70;1.85;;;;;;;7.26;60.83;100315.66;5004039;28;20034;-38
2023/01/19 05:27:40;;;;;;;12.57;2.10;;;;;;;7.52;59.18;100318.72;5002048;28;20038;-44
2023/01/19 05:30:06;;;;;;;13.73;1.60;;;;;;;7.40;59.30;100323.69;5003165;28;20029;-41
2023/01/19 05:32:32;;;;;;;18.55;1.52;;;;;;;7.60;58.09;100321.44;4998997;28;20042;-42
2023/01/19 05:34:57;;;;;;;10.90;1.65;;;;;;;7.84;57.61;100321.84;5003679;28;20034;-41
2023/01/19 05:37:22;;;;;;;11.25;1.80;;;;;;;7.85;57.46;100331.38;5004018;28;20092;-42
2023/01/19 05:39:47;;;;;;;11.65;1.92;;;;;;;7.92;57.50;100327.16;5008627;28;20072;-40
2023/01/19 05:42:13;;;;;;;13.32;1.40;;;;;;;7.38;58.23;100334.91;5003015;28;20065;-42
2023/01/19 05:44:38;;;;;;;13.23;1.65;;;;;;;7.56;58.25;100333.47;4998679;28;20389;-42
2023/01/19 05:47:04;;;;;;;12.00;1.63;;;;;;;7.75;59.03;100339.84;5002719;28;20029;-41
2023/01/19 05:49:29;;;;;;;13.30;1.60;;;;;;;7.77;58.98;100338.16;4999074;28;20449;-41
2023/01/19 05:51:54;;;;;;;11.52;1.70;;;;;;;7.51;60.51;100335.13;5003343;28;20041;-45
2023/01/19 05:54:20;;;;;;;13.88;2.08;;;;;;;7.72;60.25;100345.00;5000438;28;20042;-44
2023/01/19 05:56:45;;;;;;;12.85;1.50;;;;;;;7.58;60.62;100343.88;5004512;28;20040;-40
2023/01/19 05:59:11;;;;;;;7.72;1.35;;;;;;;7.75;60.75;100345.03;5002977;28;20045;-41
2023/01/19 06:01:37;;;;;;;17.65;2.10;;;;;;;7.50;61.27;100342.91;4998140;28;20105;-40
2023/01/19 06:04:03;;;;;;;11.95;1.58;;;;;;;7.50;61.20;100350.69;5002561;28;20060;-40
2023/01/19 06:06:29;;;;;;;13.13;1.60;;;;;;;7.23;62.11;100343.28;4998862;28;20532;-39
2023/01/19 06:08:54;;;;;;;13.93;1.67;;;;;;;7.19;63.42;100362.22;5003143;28;20034;-40
2023/01/19 06:11:20;;;;;;;17.13;1.70;;;;;;;7.40;63.69;100366.91;5000254;28;20056;-40
2023/01/19 06:13:46;;;;;;;9.23;1.58;;;;;;;7.33;63.92;100369.41;5005692;28;20532;-41
2023/01/19 06:16:11;;;;;;;9.10;1.27;;;;;;;7.42;63.63;100373.00;5012075;28;20056;-41
2023/01/19 06:18:37;;;;;;;9.77;1.65;;;;;;;7.10;64.05;100375.88;5008680;28;20060;-40
2023/01/19 06:21:05;;;;;;;9.27;1.30;;;;;;;7.52;63.09;100378.38;5011458;28;20038;-41
2023/01/19 06:23:31;;;;;;;10.20;1.42;;;;;;;7.72;62.36;100382.19;5009607;28;20053;-41
2023/01/19 06:25:57;;;;;;;13.45;1.67;;;;;;;7.50;62.53;100379.22;5013348;28;20022;-40
2023/01/19 06:28:22;;;;;;;8.65;1.10;;;;;;;7.61;61.37;100372.50;5008765;28;20044;-40
2023/01/19 06:30:52;;;;;;;7.93;1.15;;;;;;;7.57;62.65;100384.50;5011865;28;20133;-41
2023/01/19 06:33:17;;;;;;;6.00;1.17;;;;;;;7.53;63.52;100390.50;5005415;28;20042;-40
2023/01/19 06:35:45;;;;;;;8.15;1.30;;;;;;;7.58;63.39;100393.19;5006613;28;20095;-44
2023/01/19 06:38:12;;;;;;;8.20;1.55;;;;;;;7.31;64.15;100403.94;5008010;28;20056;-42
2023/01/19 06:40:37;;;;;;;11.13;1.52;;;;;;;6.99;64.76;100410.19;5003073;28;20029;-41
2023/01/19 06:43:03;;;;;;;13.68;1.33;;;;;;;7.10;64.40;100412.16;5007250;28;20025;-41
2023/01/19 06:45:28;;;;;;;8.13;1.58;;;;;;;7.41;64.15;100410.16;5004596;28;20042;-41
2023/01/19 06:47:53;;;;;;;15.52;1.92;;;;;;;7.63;63.50;100420.06;5007130;28;20456;-41
2023/01/19 06:50:19;;;;;;;9.27;1.48;;;;;;;7.57;62.61;100425.13;5002295;28;20040;-39
2023/01/19 06:52:44;;;;;;;9.90;1.50;;;;;;;7.39;62.91;100414.44;5006640;28;20022;-39
2023/01/19 06:55:10;;;;;;;9.98;1.70;;;;;;;7.30;62.97;100418.63;5005712;28;20030;-45
2023/01/19 06:57:39;;;;;;;7.70;1.13;;;;;;;7.48;62.66;100425.00;5001729;28;20441;-41
2023/01/19 07:00:07;;;;;;;9.13;1.45;;;;;;;7.85;61.77;100423.94;5006214;28;20128;-40
2023/01/19 07:02:35;;;;;;;7.18;1.40;;;;;;;7.67;61.87;100427.06;5001744;28;20045;-43
2023/01/19 07:05:01;;;;;;;11.95;1.55;;;;;;;7.53;61.86;100433.72;5007399;28;20026;-41
2023/01/19 07:07:26;;;;;;;9.48;1.75;;;;;;;7.52;61.87;100445.81;5002337;28;20034;-41
2023/01/19 07:09:52;;;;;;;13.27;1.40;;;;;;;7.75;59.82;100436.72;5006416;28;20033;-40
2023/01/19 07:12:17;;;;;;;10.73;1.50;;;;;;;7.85;60.00;100442.09;5006247;28;20034;-42
2023/01/19 07:14:42;;;;;;;9.77;1.63;;;;;;;7.68;59.08;100444.41;5012114;28;20030;-40
2023/01/19 07:17:08;;;;;;;11.02;1.98;;;;;;;7.55;59.35;100451.09;5011375;28;20037;-41
2023/01/19 07:19:36;;;;;;;9.38;1.38;;;;;;;7.38;59.92;100454.19;5007757;28;20089;-43
2023/01/19 07:22:02;;;;;;;9.82;1.15;;;;;;;7.33;60.35;100457.56;5011328;28;20030;-41
2023/01/19 07:24:29;;;;;;;11.55;1.70;;;;;;;7.73;60.23;100466.97;5007627;28;20069;-40
2023/01/19 07:26:55;;;;;;;14.15;1.83;;;;;;;7.81;59.70;100463.66;5010618;28;20111;-40
2023/01/19 07:29:20;;;;;;;11.85;1.40;;;;;;;7.67;59.97;100477.25;5007337;28;20030;-41
2023/01/19 07:31:47;;;;;;;7.70;1.35;;;;;;;7.92;59.27;100475.97;5010885;28;20038;-41
2023/01/19 07:34:13;;;;;;;11.65;1.52;;;;;;;7.82;57.46;100475.75;5011202;28;20060;-41
2023/01/19 07:36:38;;;;;;;13.35;1.55;;;;;;;7.72;58.84;100482.53;5009095;28;20042;-43
2023/01/19 07:39:03;;;;;;;10.05;1.75;;;;;;;7.87;58.11;100487.97;4994579;28;20128;-41
2023/01/19 07:41:28;;;;;;;13.05;1.52;;;;;;;7.92;58.04;100485.47;5005338;28;20137;-41
2023/01/19 07:43:54;;;;;;;10.63;1.67;;;;;;;7.83;57.37;100486.19;5010412;28;20038;-43
2023/01/19 07:46:19;;;;;;;9.45;1.30;;;;;;;7.78;57.14;100487.81;5003854;28;20030;-42
2023/01/19 07:48:46;;;;;;;6.68;1.30;;;;;;;7.74;57.63;100492.06;5004754;28;20034;-44
2023/01/19 07:51:16;;;;;;;8.65;1.25;;;;;;;7.85;57.08;100500.06;5004125;28;20034;-41
2023/01/19 07:53:42;;;;;;;8.63;1.40;;;;;;;7.70;57.12;100498.03;5000856;28;20165;-42
2023/01/19 07:56:07;;;;;;;11.13;1.42;;;;;;;7.57;57.52;100505.56;5004917;28;20042;-42
2023/01/19 07:58:33;;;;;;;10.20;1.42;;;;;;;7.50;58.37;100511.50;5000870;28;20104;-40
2023/01/19 08:00:58;;;;;;;8.27;1.38;;;;;;;7.60;57.88;100508.22;5004080;28;20045;-40
2023/01/19 08:03:23;;;;;;;8.98;1.55;;;;;;;7.92;56.91;100511.44;4999880;28;20085;-41
2023/01/19 08:05:51;;;;;;;7.13;1.42;;;;;;;7.56;58.67;100519.41;5005153;28;20400;-41
2023/01/19 08:08:17;;;;;;;12.15;1.40;;;;;;;7.64;58.49;100529.06;5000175;28;20073;-39
2023/01/19 08:10:42;;;;;;;10.35;1.63;;;;;;;7.77;57.70;100524.13;5004438;28;20506;-42
2023/01/19 08:13:07;;;;;;;8.20;1.30;;;;;;;7.14;59.47;100527.13;5006104;28;20045;-40
2023/01/19 08:15:33;;;;;;;6.22;1.38;;;;;;;7.26;59.03;100532.59;5003982;28;20026;-39
2023/01/19 08:18:00;;;;;;;11.00;1.70;;;;;;;7.48;58.62;100540.00;5005487;28;20049;-42
2023/01/19 08:20:27;;;;;;;12.88;1.70;;;;;;;7.28;58.83;100539.56;4999753;28;20030;-40
2023/01/19 08:22:59;;;;;;;10.90;1.60;;;;;;;7.15;57.76;100550.50;5006142;28;20041;-42
2023/01/19 08:25:31;;;;;;;8.00;1.30;;;;;;;7.60;57.26;100549.75;5001732;28;20033;-43
2023/01/19 08:27:56;;;;;;;9.25;1.55;;;;;;;7.67;56.94;100544.72;5004555;28;20038;-41
2023/01/19 08:30:23;;;;;;;9.80;1.35;;;;;;;7.82;56.67;100546.72;4999062;28;20124;-38
2023/01/19 08:32:48;;;;;;;7.78;1.50;;;;;;;7.57;57.03;100560.03;5003811;28;20511;-39
2023/01/19 08:35:14;;;;;;;14.25;1.70;;;;;;;7.43;57.51;100554.59;5003557;28;20243;-43
2023/01/19 08:37:39;;;;;;;10.45;1.65;;;;;;;7.42;57.46;100560.63;4999222;28;20121;-42
2023/01/19 08:40:05;;;;;;;8.95;1.80;;;;;;;7.34;57.13;100557.84;5003369;28;20515;-43
2023/01/19 08:42:31;;;;;;;7.03;1.33;;;;;;;7.64;56.83;100560.19;4999293;28;20393;-43
2023/01/19 08:44:56;;;;;;;7.72;1.42;;;;;;;7.74;56.46;100564.72;5003704;28;20076;-41
2023/01/19 08:47:22;;;;;;;7.25;1.38;;;;;;;7.53;55.60;100560.81;4999726;28;20128;-40
2023/01/19 08:49:47;;;;;;;7.78;1.15;;;;;;;7.75;55.73;100561.28;5002906;28;20397;-42
2023/01/19 08:52:12;;;;;;;9.98;1.38;;;;;;;7.83;55.82;100560.56;5002269;28;20030;-41
2023/01/19 08:54:37;;;;;;;15.43;1.33;;;;;;;7.71;55.07;100563.78;4999714;28;20172;-41
2023/01/19 08:57:03;;;;;;;7.65;1.20;;;;;;;8.02;54.11;100560.06;5002764;28;20519;-41
2023/01/19 08:59:28;;;;;;;8.52;1.30;;;;;;;8.07;54.34;100564.50;4999784;28;20067;-42
2023/01/19 09:01:53;;;;;;;11.65;1.60;;;;;;;7.79;54.60;100569.13;5002907;28;20057;-40
2023/01/19 09:04:18;;;;;;;7.63;1.52;;;;;;;7.90;53.86;100568.50;5000239;28;20037;-39
2023/01/19 09:06:44;;;;;;;9.18;1.42;;;;;;;8.17;54.27;100567.28;5003150;28;20129;-41
2023/01/19 09:09:09;;;;;;;10.70;1.48;;;;;;;7.83;54.15;100569.22;5003054;28;20044;-41
2023/01/19 09:11:34;;;;;;;9.65;2.25;;;;;;;8.15;53.77;100572.44;4998257;28;20041;-43
2023/01/19 09:14:00;;;;;;;8.45;1.83;;;;;;;8.18;53.72;100576.78;5003495;28;20103;-40
2023/01/19 09:16:26;;;;;;;11.70;1.77;;;;;;;8.38;53.37;100575.47;5003324;28;20053;-42
2023/01/19 09:18:51;;;;;;;13.88;1.80;;;;;;;7.89;54.59;100578.84;5005603;28;20033;-41
2023/01/19 09:21:18;;;;;;;9.45;1.30;;;;;;;7.88;54.58;100583.16;5003750;28;20084;-39
2023/01/19 09:23:44;;;;;;;10.18;1.40;;;;;;;7.93;53.48;100589.31;5005252;28;20034;-41
2023/01/19 09:26:09;;;;;;;7.07;1.35;;;;;;;8.04;53.70;100590.41;5006954;28;20058;-40
2023/01/19 09:28:36;;;;;;;12.07;1.70;;;;;;;7.98;54.06;100594.63;5000121;28;20049;-41
2023/01/19 09:31:06;;;;;;;6.22;1.50;;;;;;;8.05;52.49;100592.13;5003021;28;20038;-43
2023/01/19 09:33:32;;;;;;;7.15;1.50;;;;;;;8.40;52.43;100592.84;5002665;28;20041;-43
2023/01/19 09:35:57;;;;;;;6.57;1.27;;;;;;;8.21;52.31;100592.44;5009232;28;20026;-42
2023/01/19 09:38:24;;;;;;;9.18;1.30;;;;;;;8.19;52.54;100596.72;5006429;28;20061;-40
2023/01/19 09:40:52;;;;;;;6.97;1.40;;;;;;;8.22;51.26;100596.78;5004900;28;20524;-41
2023/01/19 09:43:46;;;;;;;8.27;1.60;;;;;;;8.17;50.94;100593.25;4999791;28;20614;-38
2023/01/19 09:46:40;;;;;;;5.05;1.10;;;;;;;8.13;49.42;100589.69;5002491;28;20038;-44
2023/01/19 09:49:19;;;;;;;8.48;1.10;;;;;;;7.90;49.40;100610.03;4998837;28;20048;-41
2023/01/19 09:51:48;;;;;;;5.50;1.00;;;;;;;8.00;48.81;100614.53;4998218;28;20484;-42
2023/01/19 09:54:20;;;;;;;6.03;1.10;;;;;;;7.98;49.65;100608.47;5003773;28;20369;-40
2023/01/19 09:56:48;;;;;;;5.38;1.10;;;;;;;7.92;48.97;100617.84;4999461;28;20030;-42
2023/01/19 09:59:16;;;;;;;7.35;1.05;;;;;;;8.02;48.27;100614.59;5004095;28;20026;-42
2023/01/19 10:01:56;;;;;;;7.72;1.85;;;;;;;8.21;49.47;100615.81;4997696;28;20095;-42
2023/01/19 10:04:34;;;;;;;7.78;1.30;;;;;;;8.42;49.40;100624.00;4997825;28;20420;-41
2023/01/19 10:07:12;;;;;;;8.85;1.20;;;;;;;8.00;50.08;100624.94;5002008;28;20044;-41
2023/01/19 10:09:58;;;;;;;6.00;1.15;;;;;;;8.26;50.23;100630.63;4997844;28;20385;-41
2023/01/19 10:12:29;;;;;;;5.55;1.00;;;;;;;7.69;50.32;100641.59;4997329;28;20045;-40
2023/01/19 10:15:05;;;;;;;4.53;1.10;;;;;;;7.92;50.80;100639.50;5002345;28;20064;-41
2023/01/19 10:17:56;;;;;;;4.63;1.08;;;;;;;8.07;50.35;100647.56;4998188;28;20578;-40
2023/01/19 10:20:32;;;;;;;5.78;0.90;;;;;;;7.75;50.69;100646.91;5039435;23;20044;-77
2023/01/19 10:22:58;;;;;;;5.78;1.15;;;;;;;7.55;50.91;100643.03;5041388;28;20025;-77
2023/01/19 10:25:25;;;;;;;3.47;0.90;;;;;;;8.09;49.81;100645.03;5036495;28;20068;-76
2023/01/19 10:27:50;;;;;;;8.60;0.90;;;;;;;7.88;50.19;100647.16;5042279;28;20486;-75
2023/01/19 10:30:24;;;;;;;8.57;1.17;;;;;;;8.02;50.38;100649.22;5041420;28;20033;-76
2023/01/19 10:32:50;;;;;;;12.13;1.00;;;;;;;7.92;50.45;100651.59;5037176;28;20029;-76
2023/01/19 10:35:24;;;;;;;5.63;1.20;;;;;;;7.70;48.98;100658.91;5041621;28;20036;-76
2023/01/19 10:37:53;;;;;;;4.13;1.10;;;;;;;7.57;48.50;100653.44;5037288;28;20120;-78
2023/01/19 10:40:33;;;;;;;4.75;1.20;;;;;;;8.15;48.82;100639.94;5037132;28;20036;-76
2023/01/19 10:42:59;;;;;;;8.27;1.00;;;;;;;7.98;49.49;100651.72;5041317;28;20037;-75
2023/01/19 10:45:28;;;;;;;2.45;0.90;;;;;;;7.76;49.13;100650.38;5036142;28;20125;-77
2023/01/19 10:47:58;;;;;;;5.35;1.17;;;;;;;7.89;49.49;100659.31;5040453;28;20371;-76
2023/01/19 10:50:27;;;;;;;5.68;1.00;;;;;;;8.07;48.64;100657.09;5037363;28;20036;-76
2023/01/19 10:52:58;;;;;;;4.03;1.10;;;;;;;8.17;47.92;100642.56;5042013;28;20509;-77
2023/01/19 10:55:31;;;;;;;3.42;1.10;;;;;;;8.02;46.55;100643.13;5023653;28;20029;-77
2023/01/19 10:57:58;;;;;;;2.55;0.77;;;;;;;8.23;46.98;100647.88;5027641;28;20040;-76
2023/01/19 11:00:31;;;;;;;7.93;1.25;;;;;;;8.18;47.16;100640.00;5019223;28;20037;-75
2023/01/19 11:02:56;;;;;;;6.88;0.88;;;;;;;8.01;48.29;100650.06;5045469;28;20176;-75
2023/01/19 11:05:27;;;;;;;7.18;1.08;;;;;;;8.11;48.96;100649.38;5042188;28;20124;-75
2023/01/19 11:07:53;;;;;;;7.07;1.08;;;;;;;8.06;48.85;100651.00;5045780;28;20143;-74
2023/01/19 11:10:27;;;;;;;5.97;1.33;;;;;;;7.81;48.21;100664.31;5015161;28;20123;-75
2023/01/19 11:13:11;;;;;;;6.72;1.27;;;;;;;8.07;48.86;100660.56;5047586;28;20037;-75
2023/01/19 11:15:57;;;;;;;6.63;1.35;;;;;;;8.14;48.08;100656.38;5040831;28;20102;-75
2023/01/19 11:18:28;;;;;;;7.10;1.02;;;;;;;8.11;47.92;100664.09;5040757;28;20040;-76
2023/01/19 11:21:01;;;;;;;6.18;1.48;;;;;;;8.00;48.05;100655.19;5028962;28;20418;-76
2023/01/19 11:23:41;;;;;;;5.13;1.40;;;;;;;7.79;48.72;100660.84;5039095;28;20029;-77
2023/01/19 11:26:14;;;;;;;6.07;1.33;;;;;;;8.08;48.60;100646.72;5045313;28;20036;-75
2023/01/19 11:28:45;;;;;;;3.30;0.98;;;;;;;8.11;48.53;100654.56;5043195;28;20367;-76
2023/01/19 11:31:10;;;;;;;4.28;1.40;;;;;;;8.06;48.04;100650.13;5045769;28;20040;-77
2023/01/19 11:33:51;;;;;;;6.93;1.10;;;;;;;8.21;47.09;100653.03;5041594;28;20037;-75
2023/01/19 11:36:25;;;;;;;4.68;1.13;;;;;;;8.03;46.93;100655.28;5043999;28;20100;-78
2023/01/19 11:39:09;;;;;;;4.95;0.93;;;;;;;8.65;46.32;100645.22;5045330;28;20044;-75
2023/01/19 11:41:37;;;;;;;5.78;1.10;;;;;;;8.23;46.46;100642.69;5032544;28;20060;-75
2023/01/19 11:44:13;;;;;;;3.55;0.95;;;;;;;8.05;47.33;100646.66;5046408;28;20029;-76
2023/01/19 11:46:43;;;;;;;8.05;1.30;;;;;;;7.98;47.43;100646.53;5025031;28;20065;-74